Time;durP1;ratioP1;P1;durP2;ratioP2;P2;SDS_P1;SDS_P2;PMS_P1;PMS_P2;Temp;Humidity;BMP_temperature;BMP_pressure;BME280_temperature;BME280_humidity;BME280_pressure;Samples;Min_cycle;Max_cycle;Signal;HPM_P1;HPM_P2
2023/04/27 00:01:14;;;;;;;13.70;6.10;;;0.80;99.90;;;;;;5015494;28;20103;-83
2023/04/27 00:03:40;;;;;;;14.47;6.23;;;0.70;99.90;;;;;;5015103;28;20068;-83
2023/04/27 00:06:07;;;;;;;14.30;5.87;;;0.70;99.90;;;;;;5032928;28;20041;-84
2023/04/27 00:08:33;;;;;;;13.03;6.23;;;0.70;99.90;;;;;;5033678;28;20504;-83
2023/04/27 00:10:59;;;;;;;17.63;7.10;;;0.70;99.90;;;;;;5032697;28;20084;-83
2023/04/27 00:13:25;;;;;;;15.83;6.47;;;0.70;99.90;;;;;;5015521;28;20052;-83
2023/04/27 00:15:51;;;;;;;15.43;6.63;;;0.60;99.90;;;;;;5014661;28;20049;-83
2023/04/27 00:18:17;;;;;;;13.73;6.27;;;0.60;99.90;;;;;;5014595;28;20052;-83
2023/04/27 00:20:43;;;;;;;15.30;6.77;;;0.60;99.90;;;;;;5033063;28;20041;-83
2023/04/27 00:23:09;;;;;;;17.27;6.50;;;0.50;99.90;;;;;;5015357;28;20060;-83
2023/04/27 00:25:35;;;;;;;17.60;6.47;;;0.50;99.90;;;;;;5014749;28;20045;-83
2023/04/27 00:28:01;;;;;;;14.07;5.97;;;0.50;99.90;;;;;;5031585;28;20045;-83
2023/04/27 00:30:26;;;;;;;14.03;6.47;;;0.50;99.90;;;;;;5032467;28;20048;-83
2023/04/27 00:32:52;;;;;;;19.27;6.10;;;0.40;99.90;;;;;;5015741;28;20037;-83
2023/04/27 00:35:18;;;;;;;13.87;6.00;;;0.40;99.90;;;;;;5014860;28;20045;-83
2023/04/27 00:37:43;;;;;;;16.10;6.73;;;0.40;99.90;;;;;;5014846;28;20101;-83
2023/04/27 00:40:09;;;;;;;14.83;6.07;;;0.30;99.90;;;;;;5015333;28;20052;-83
2023/04/27 00:42:35;;;;;;;16.90;7.23;;;0.30;99.90;;;;;;5033027;28;20054;-83
2023/04/27 00:45:02;;;;;;;15.97;5.70;;;0.30;99.90;;;;;;5031554;28;20382;-83
2023/04/27 00:47:28;;;;;;;15.50;6.30;;;0.20;99.90;;;;;;5032711;28;20038;-83
2023/04/27 00:49:55;;;;;;;20.03;6.60;;;0.20;99.90;;;;;;5015367;28;20052;-83
2023/04/27 00:52:21;;;;;;;17.47;6.17;;;0.20;99.90;;;;;;5032313;28;20037;-83
2023/04/27 00:54:50;;;;;;;14.03;6.03;;;0.20;99.90;;;;;;5033034;28;20064;-83
2023/04/27 00:57:16;;;;;;;16.33;5.97;;;0.20;99.90;;;;;;5032483;28;20056;-83
2023/04/27 00:59:41;;;;;;;17.20;6.37;;;0.20;99.90;;;;;;5014315;28;20041;-83
2023/04/27 01:02:09;;;;;;;13.90;5.97;;;0.20;99.90;;;;;;5032269;28;20045;-83
2023/04/27 01:04:35;;;;;;;14.70;6.20;;;0.20;99.90;;;;;;5015225;28;20132;-83
2023/04/27 01:07:02;;;;;;;15.10;5.97;;;0.20;99.90;;;;;;5014494;28;20068;-83
2023/04/27 01:09:27;;;;;;;14.23;6.60;;;0.20;99.90;;;;;;5036727;28;20453;-83
2023/04/27 01:11:53;;;;;;;17.47;6.57;;;0.20;99.90;;;;;;5015035;28;20128;-83
2023/04/27 01:14:18;;;;;;;14.13;6.70;;;0.20;99.90;;;;;;5032457;28;20045;-83
2023/04/27 01:16:45;;;;;;;15.90;6.20;;;0.10;99.90;;;;;;5036981;28;20049;-83
2023/04/27 01:19:11;;;;;;;16.37;6.67;;;0.20;99.90;;;;;;5032717;28;20053;-83
2023/04/27 01:21:36;;;;;;;17.40;6.40;;;0.10;99.90;;;;;;5032129;28;20037;-83
2023/04/27 01:24:06;;;;;;;14.43;6.20;;;0.10;99.90;;;;;;5014453;28;20187;-83
2023/04/27 01:26:32;;;;;;;15.77;5.97;;;0.00;99.90;;;;;;5017651;28;20489;-82
2023/04/27 01:28:58;;;;;;;14.83;6.03;;;0.00;99.90;;;;;;5035825;28;20045;-82
2023/04/27 01:31:24;;;;;;;16.00;6.10;;;0.00;99.90;;;;;;5036066;28;20042;-82
2023/04/27 01:33:49;;;;;;;15.53;6.27;;;0.00;99.90;;;;;;5017780;28;20061;-82
2023/04/27 01:36:15;;;;;;;13.57;6.20;;;0.00;99.90;;;;;;5035676;28;20053;-82
2023/04/27 01:38:41;;;;;;;15.33;6.23;;;0.00;99.90;;;;;;5036199;28;20049;-83
2023/04/27 01:41:08;;;;;;;18.10;6.40;;;0.00;99.90;;;;;;5035185;28;20041;-83
2023/04/27 01:43:34;;;;;;;20.30;6.87;;;0.00;99.90;;;;;;5035928;28;20046;-83
2023/04/27 01:46:10;;;;;;;16.87;6.50;;;0.00;99.90;;;;;;5035885;28;20045;-82
2023/04/27 01:48:37;;;;;;;17.93;5.80;;;0.00;99.90;;;;;;5017488;28;20048;-82
2023/04/27 01:51:02;;;;;;;14.13;5.77;;;0.00;99.90;;;;;;5035802;28;20037;-82
2023/04/27 01:53:29;;;;;;;14.80;6.50;;;-0.10;99.90;;;;;;5036162;28;20386;-82
2023/04/27 01:55:55;;;;;;;16.10;5.97;;;-0.10;99.90;;;;;;5017150;28;20041;-82
2023/04/27 01:58:21;;;;;;;15.60;6.20;;;-0.10;99.90;;;;;;5017898;28;20119;-83
2023/04/27 02:00:46;;;;;;;14.80;6.73;;;-0.10;99.90;;;;;;5012439;28;20046;-83
2023/04/27 02:03:12;;;;;;;16.93;7.67;;;-0.10;99.90;;;;;;5014897;28;20046;-83
2023/04/27 02:05:38;;;;;;;15.70;6.20;;;0.00;99.90;;;;;;4997885;28;20476;-83
2023/04/27 02:08:03;;;;;;;17.50;6.30;;;-0.10;99.90;;;;;;5015938;28;20096;-82
2023/04/27 02:10:29;;;;;;;16.77;6.13;;;-0.10;99.90;;;;;;5015341;28;20408;-82
2023/04/27 02:12:56;;;;;;;14.57;6.93;;;-0.10;99.90;;;;;;4998161;28;20457;-83
2023/04/27 02:15:22;;;;;;;14.97;6.60;;;-0.10;99.90;;;;;;4997925;28;20102;-82
2023/04/27 02:17:48;;;;;;;13.10;6.20;;;-0.20;99.90;;;;;;5015278;28;20037;-83
2023/04/27 02:20:14;;;;;;;16.07;6.50;;;-0.20;99.90;;;;;;4997621;28;20520;-82
2023/04/27 02:22:43;;;;;;;17.37;6.60;;;-0.20;99.90;;;;;;4997981;28;20046;-83
2023/04/27 02:25:12;;;;;;;15.50;6.23;;;-0.20;99.90;;;;;;5014882;28;20133;-83
2023/04/27 02:27:38;;;;;;;14.47;6.20;;;-0.20;99.90;;;;;;4998117;28;20045;-82
2023/04/27 02:30:05;;;;;;;14.20;6.07;;;-0.20;99.90;;;;;;5014660;28;20049;-82
2023/04/27 02:32:31;;;;;;;16.83;6.47;;;-0.20;99.90;;;;;;4997825;28;20045;-83
2023/04/27 02:34:57;;;;;;;14.17;6.13;;;-0.30;99.90;;;;;;4997559;28;20128;-83
2023/04/27 02:37:23;;;;;;;16.53;6.87;;;-0.30;99.90;;;;;;5013719;28;20154;-82
2023/04/27 02:39:48;;;;;;;14.60;6.90;;;-0.30;99.90;;;;;;4998856;28;20048;-83
2023/04/27 02:42:15;;;;;;;16.20;7.63;;;-0.40;99.90;;;;;;5017894;28;20478;-82
2023/04/27 02:44:41;;;;;;;17.00;6.40;;;-0.40;99.90;;;;;;4997376;28;20042;-82
2023/04/27 02:47:06;;;;;;;14.50;6.30;;;-0.40;99.90;;;;;;5015710;28;20038;-84
2023/04/27 02:49:32;;;;;;;14.07;6.30;;;-0.40;99.90;;;;;;5018672;28;20121;-83
2023/04/27 02:51:57;;;;;;;16.83;6.17;;;-0.40;99.90;;;;;;5014302;28;20116;-82
2023/04/27 02:54:24;;;;;;;17.30;6.33;;;-0.50;99.90;;;;;;5015307;28;20042;-82
2023/04/27 02:56:49;;;;;;;16.87;6.53;;;-0.50;99.90;;;;;;4997544;28;20421;-83
2023/04/27 02:59:15;;;;;;;14.57;6.20;;;-0.50;99.90;;;;;;5013731;28;20089;-83
2023/04/27 03:01:41;;;;;;;16.03;6.43;;;-0.60;99.90;;;;;;4997931;28;20049;-82
2023/04/27 03:04:06;;;;;;;18.87;7.07;;;-0.60;99.90;;;;;;4998618;28;20065;-83
2023/04/27 03:06:32;;;;;;;17.60;7.40;;;-0.60;99.90;;;;;;4997954;28;20038;-83
2023/04/27 03:08:57;;;;;;;17.03;6.63;;;-0.60;99.90;;;;;;4997815;28;20050;-83
2023/04/27 03:11:23;;;;;;;14.10;6.50;;;-0.60;99.90;;;;;;4997390;28;20494;-83
2023/04/27 03:13:49;;;;;;;15.07;6.33;;;-0.70;99.90;;;;;;5014112;28;20053;-82
2023/04/27 03:16:15;;;;;;;17.00;6.50;;;-0.70;99.90;;;;;;4996539;28;20498;-83
2023/04/27 03:18:40;;;;;;;17.10;6.77;;;-0.70;99.90;;;;;;5014701;28;20042;-83
2023/04/27 03:21:10;;;;;;;15.27;6.67;;;-0.70;99.90;;;;;;4995992;28;20046;-83
2023/04/27 03:23:37;;;;;;;18.07;6.73;;;-0.70;99.90;;;;;;5014740;28;20096;-82
2023/04/27 03:26:11;;;;;;;15.33;6.53;;;-0.70;99.90;;;;;;5015475;28;20052;-82
2023/04/27 03:28:37;;;;;;;16.23;6.67;;;-0.80;99.90;;;;;;5034089;28;20432;-83
2023/04/27 03:31:10;;;;;;;20.27;7.00;;;-0.80;99.90;;;;;;5033495;28;20053;-82
2023/04/27 03:33:36;;;;;;;16.08;6.57;;;-0.80;99.90;;;;;;5010283;23;20061;-82
2023/04/27 03:36:03;;;;;;;16.60;7.00;;;-0.80;99.90;;;;;;4976631;28;20150;-83
2023/04/27 03:38:29;;;;;;;16.50;7.23;;;-0.80;99.90;;;;;;4976911;28;20502;-82
2023/04/27 03:40:56;;;;;;;14.73;6.57;;;-0.90;99.90;;;;;;4976466;28;20042;-82
2023/04/27 03:43:22;;;;;;;17.00;7.20;;;-0.90;99.90;;;;;;4994705;28;20125;-83
2023/04/27 03:45:48;;;;;;;18.27;7.40;;;-0.90;99.90;;;;;;4976764;28;20057;-83
2023/04/27 03:48:15;;;;;;;17.33;7.27;;;-0.90;99.90;;;;;;4976032;28;20046;-83
2023/04/27 03:50:41;;;;;;;16.93;6.63;;;-0.90;99.90;;;;;;4976802;28;20054;-82
2023/04/27 03:53:07;;;;;;;16.50;6.63;;;-0.90;99.90;;;;;;4976428;28;20104;-83
2023/04/27 03:55:32;;;;;;;16.00;6.80;;;-1.00;99.90;;;;;;4976267;28;20046;-83
2023/04/27 03:57:58;;;;;;;19.07;7.63;;;-1.00;99.90;;;;;;4994310;28;20047;-83
2023/04/27 04:00:24;;;;;;;15.60;6.90;;;-1.00;99.90;;;;;;4975594;28;20082;-83
2023/04/27 04:02:50;;;;;;;19.13;7.00;;;0.30;99.90;;;;;;4985874;28;20038;-83
2023/04/27 04:05:17;;;;;;;18.30;7.67;;;-1.10;99.90;;;;;;4975557;28;20498;-83
2023/04/27 04:07:44;;;;;;;14.97;6.30;;;0.20;99.90;;;;;;4976585;28;20042;-83
2023/04/27 04:10:10;;;;;;;16.50;6.73;;;-1.10;99.90;;;;;;4992489;28;20046;-83
2023/04/27 04:12:35;;;;;;;15.77;6.73;;;-1.10;99.90;;;;;;4977965;28;20376;-83
2023/04/27 04:15:02;;;;;;;17.47;7.23;;;-1.20;99.90;;;;;;4979564;28;20045;-83
2023/04/27 04:17:28;;;;;;;18.13;6.87;;;-1.20;99.90;;;;;;4975768;28;20193;-83
2023/04/27 04:19:53;;;;;;;17.50;7.10;;;-1.20;99.90;;;;;;4994545;28;20506;-83
2023/04/27 04:22:19;;;;;;;17.20;7.43;;;-1.10;99.90;;;;;;4997625;28;20142;-82
2023/04/27 04:24:45;;;;;;;17.73;7.03;;;-1.10;99.90;;;;;;4976045;28;20399;-83
2023/04/27 04:27:10;;;;;;;14.90;6.63;;;-1.20;99.90;;;;;;4975441;28;20054;-83
2023/04/27 04:29:37;;;;;;;16.40;7.73;;;-1.20;99.90;;;;;;4993045;28;20057;-83
2023/04/27 04:32:03;;;;;;;17.23;6.90;;;-1.20;99.90;;;;;;4965748;23;20396;-83
2023/04/27 04:34:29;;;;;;;18.17;7.67;;;-1.00;99.90;;;;;;4973911;28;20059;-83
2023/04/27 04:36:58;;;;;;;19.53;6.90;;;-1.10;99.90;;;;;;4955934;28;20403;-83
2023/04/27 04:39:23;;;;;;;19.53;7.40;;;-1.10;99.90;;;;;;4957452;28;20042;-83
2023/04/27 04:41:49;;;;;;;18.50;7.60;;;-1.00;99.90;;;;;;4956953;28;20113;-83
2023/04/27 04:44:15;;;;;;;18.73;7.13;;;-1.00;99.90;;;;;;4973394;28;20058;-83
2023/04/27 04:46:41;;;;;;;15.83;6.87;;;-1.00;99.90;;;;;;4957010;28;20495;-83
2023/04/27 04:49:07;;;;;;;19.50;7.47;;;-1.00;99.90;;;;;;4973993;28;20043;-84
2023/04/27 04:51:33;;;;;;;18.07;7.77;;;-0.80;99.90;;;;;;4973247;28;20114;-83
2023/04/27 04:53:59;;;;;;;19.33;8.17;;;-0.70;99.90;;;;;;4974123;28;20039;-83
2023/04/27 04:56:25;;;;;;;18.20;7.57;;;-0.70;99.90;;;;;;4956445;28;20035;-82
2023/04/27 04:58:50;;;;;;;16.87;7.83;;;-0.60;99.90;;;;;;4973405;28;20407;-83
2023/04/27 05:01:16;;;;;;;18.13;7.83;;;-0.60;99.90;;;;;;4977069;28;20049;-83
2023/04/27 05:03:42;;;;;;;17.10;8.10;;;-0.50;99.90;;;;;;4962976;28;20038;-83
2023/04/27 05:06:07;;;;;;;19.80;8.50;;;-0.40;99.90;;;;;;4961939;28;20122;-83
2023/04/27 05:08:33;;;;;;;18.17;7.50;;;-0.40;99.90;;;;;;4963168;28;20483;-84
2023/04/27 05:10:59;;;;;;;18.10;8.07;;;-0.40;99.90;;;;;;4962648;28;20050;-83
2023/04/27 05:13:25;;;;;;;20.27;9.10;;;-0.30;99.90;;;;;;4979786;28;20085;-83
2023/04/27 05:15:51;;;;;;;20.33;8.10;;;-0.30;99.90;;;;;;4980219;28;20042;-82
2023/04/27 05:18:17;;;;;;;17.37;8.67;;;-0.30;99.90;;;;;;4980277;28;20053;-83
2023/04/27 05:20:43;;;;;;;23.70;8.50;;;-0.10;99.90;;;;;;4962384;28;20057;-83
2023/04/27 05:23:08;;;;;;;20.60;8.97;;;0.00;99.90;;;;;;4962859;28;20606;-83
2023/04/27 05:25:40;;;;;;;19.70;7.93;;;0.10;99.90;;;;;;4963087;28;20142;-83
2023/04/27 05:28:09;;;;;;;20.40;9.13;;;0.10;99.90;;;;;;4979732;28;20043;-83
2023/04/27 05:30:35;;;;;;;23.47;9.60;;;0.20;99.90;;;;;;4979891;28;20454;-83
2023/04/27 05:33:02;;;;;;;20.77;10.00;;;0.30;99.90;;;;;;4962258;28;20089;-83
2023/04/27 05:35:29;;;;;;;24.67;10.30;;;0.50;99.90;;;;;;4962799;28;20050;-83
2023/04/27 05:37:57;;;;;;;24.80;10.87;;;0.60;99.90;;;;;;4962691;28;20368;-83
2023/04/27 05:40:23;;;;;;;25.17;10.13;;;2.10;99.90;;;;;;4962038;28;20380;-83
2023/04/27 05:42:49;;;;;;;23.33;10.87;;;0.90;99.90;;;;;;4962749;28;20058;-83
2023/04/27 05:45:14;;;;;;;26.70;12.00;;;1.00;99.90;;;;;;4979863;28;20062;-83
2023/04/27 05:47:40;;;;;;;23.67;11.00;;;1.20;99.90;;;;;;4969193;28;20089;-83
2023/04/27 05:50:07;;;;;;;23.17;10.90;;;1.20;99.90;;;;;;4963928;28;20082;-84
2023/04/27 05:52:33;;;;;;;22.47;11.33;;;1.40;99.90;;;;;;4980798;28;20112;-83
2023/04/27 05:54:58;;;;;;;24.67;10.97;;;1.60;99.90;;;;;;4986006;28;20511;-83
2023/04/27 05:57:25;;;;;;;22.87;10.53;;;1.80;99.90;;;;;;4964784;28;20104;-83
2023/04/27 05:59:51;;;;;;;24.87;11.20;;;2.00;99.90;;;;;;4980400;28;20049;-84
2023/04/27 06:02:17;;;;;;;24.60;11.33;;;2.10;99.90;;;;;;4979127;28;20133;-84
2023/04/27 06:04:43;;;;;;;21.83;10.57;;;2.10;99.90;;;;;;4963005;28;20550;-84
2023/04/27 06:07:13;;;;;;;22.40;9.93;;;2.10;99.90;;;;;;4980175;28;20134;-84
2023/04/27 06:09:39;;;;;;;20.73;10.37;;;2.20;99.90;;;;;;4979709;28;20483;-83
2023/04/27 06:12:05;;;;;;;19.13;9.07;;;3.50;99.90;;;;;;4960720;28;20062;-84
2023/04/27 06:14:32;;;;;;;21.53;9.40;;;2.40;99.90;;;;;;4976476;28;20472;-81
2023/04/27 06:16:58;;;;;;;20.00;8.67;;;2.50;99.90;;;;;;4975574;28;20043;-81
2023/04/27 06:19:23;;;;;;;19.50;8.80;;;2.80;99.90;;;;;;4976739;28;20060;-82
2023/04/27 06:21:50;;;;;;;18.53;9.27;;;2.90;99.90;;;;;;4959255;28;20101;-80
2023/04/27 06:24:16;;;;;;;18.33;8.70;;;3.10;99.90;;;;;;4958288;28;20047;-80
2023/04/27 06:26:45;;;;;;;17.93;8.47;;;3.30;99.90;;;;;;4976551;28;20430;-81
2023/04/27 06:29:14;;;;;;;20.73;8.40;;;3.50;99.90;;;;;;4955507;28;20043;-81
2023/04/27 06:31:40;;;;;;;16.33;7.47;;;3.80;99.90;;;;;;4981487;23;20067;-82
2023/04/27 06:34:06;;;;;;;15.60;6.83;;;3.70;99.90;;;;;;4995134;28;20057;-82
2023/04/27 06:36:32;;;;;;;14.73;6.67;;;3.90;99.90;;;;;;4977459;28;20129;-82
2023/04/27 06:38:58;;;;;;;14.63;6.90;;;4.00;99.90;;;;;;4978078;28;20487;-83
2023/04/27 06:41:28;;;;;;;15.17;5.47;;;4.10;99.90;;;;;;4978366;28;20376;-81
2023/04/27 06:43:54;;;;;;;16.17;7.23;;;4.30;99.90;;;;;;4994664;28;20403;-83
2023/04/27 06:46:19;;;;;;;21.27;9.83;;;4.40;99.90;;;;;;5002364;23;20085;-82
2023/04/27 06:49:03;;;;;;;14.70;6.90;;;5.30;99.90;;;;;;4977649;28;20101;-84
2023/04/27 06:51:35;;;;;;;14.90;6.57;;;3.90;99.90;;;;;;4962073;28;20046;-82
2023/04/27 06:54:02;;;;;;;11.60;5.40;;;5.00;99.90;;;;;;4972265;28;20122;-83
2023/04/27 06:59:24;;;;;;;13.77;6.13;;;5.30;99.90;;;;;;5418753;23;20066;-82
2023/04/27 07:02:08;;;;;;;13.40;6.07;;;5.40;99.90;;;;;;4969693;28;20078;-81
2023/04/27 07:04:35;;;;;;;14.07;5.63;;;5.40;99.90;;;;;;4992864;28;20067;-82
2023/04/27 07:07:01;;;;;;;12.13;5.20;;;6.30;99.90;;;;;;4976074;28;20121;-83
2023/04/27 07:09:29;;;;;;;12.00;4.90;;;7.20;99.90;;;;;;4969729;28;20121;-82
2023/04/27 07:12:05;;;;;;;11.20;4.90;;;6.00;99.90;;;;;;4989702;28;20093;-84
2023/04/27 07:14:32;;;;;;;11.35;4.85;;;6.50;99.90;;;;;;4988287;28;20129;-83
2023/04/27 07:16:58;;;;;;;12.45;5.18;;;7.70;99.90;;;;;;4975222;28;20042;-83
2023/04/27 07:19:42;;;;;;;11.32;4.65;;;6.20;99.90;;;;;;4973626;28;20142;-83
2023/04/27 07:22:08;;;;;;;11.57;5.00;;;8.00;99.90;;;;;;4978383;28;20042;-83
2023/04/27 07:24:34;;;;;;;11.80;4.50;;;6.60;99.90;;;;;;4976291;28;20054;-83
2023/04/27 07:27:19;;;;;;;11.30;4.40;;;8.20;99.90;;;;;;4993321;28;20053;-84
2023/04/27 07:29:51;;;;;;;9.65;3.85;;;6.90;99.90;;;;;;4979183;28;20475;-84
2023/04/27 07:32:16;;;;;;;11.85;4.75;;;7.40;99.90;;;;;;4976595;28;20548;-81
2023/04/27 07:34:42;;;;;;;8.77;3.47;;;9.00;99.90;;;;;;4993814;28;20046;-84
2023/04/27 07:37:08;;;;;;;9.55;3.50;;;9.20;99.90;;;;;;4976240;28;20038;-84
2023/04/27 07:39:34;;;;;;;11.07;3.40;;;8.00;99.90;;;;;;4975418;28;20046;-84
2023/04/27 07:42:25;;;;;;;8.50;3.42;;;9.00;99.90;;;;;;4976246;28;20097;-84
2023/04/27 07:48:35;;;;;;;9.90;3.53;;;7.80;99.90;;;;;;4990924;28;20045;-84
2023/04/27 07:51:51;;;;;;;10.95;4.43;;;7.30;99.90;;;;;;4985018;23;20105;-84
2023/04/27 07:54:21;;;;;;;8.63;3.05;;;8.10;99.90;;;;;;4980891;28;20090;-84
2023/04/27 07:56:47;;;;;;;9.35;3.50;;;8.10;99.90;;;;;;4982809;28;20045;-84
2023/04/27 07:59:22;;;;;;;9.13;3.40;;;8.00;99.90;;;;;;4990010;28;20042;-82
2023/04/27 08:01:47;;;;;;;9.90;3.40;;;9.60;99.90;;;;;;4984239;28;20065;-82
2023/04/27 08:04:20;;;;;;;7.93;3.22;;;9.60;99.90;;;;;;4980825;28;20039;-82
2023/04/27 08:06:45;;;;;;;9.95;3.50;;;8.60;99.90;;;;;;4982752;28;20050;-83
2023/04/27 08:09:14;;;;;;;9.65;3.03;;;9.70;99.90;;;;;;4985024;28;20034;-84
2023/04/27 08:11:40;;;;;;;8.38;2.97;;;9.60;99.90;;;;;;4976452;28;20880;-82
2023/04/27 08:14:21;;;;;;;9.82;3.30;;;9.90;99.90;;;;;;4982775;28;20118;-83
2023/04/27 08:17:13;;;;;;;9.80;3.50;;;8.90;99.90;;;;;;4982716;28;20057;-84
2023/04/27 08:19:41;;;;;;;9.63;3.13;;;9.20;99.90;;;;;;4990157;28;20082;-83
2023/04/27 08:22:07;;;;;;;10.00;3.40;;;10.60;99.90;;;;;;4991049;28;20426;-83
2023/04/27 08:24:33;;;;;;;9.40;3.10;;;9.60;99.90;;;;;;4993241;28;20471;-83
2023/04/27 08:27:14;;;;;;;8.32;3.05;;;9.50;99.90;;;;;;4991436;28;20046;-83
2023/04/27 08:30:27;;;;;;;9.55;3.20;;;8.60;99.90;;;;;;4991904;28;20081;-83
2023/04/27 08:32:53;;;;;;;7.93;3.15;;;9.50;99.90;;;;;;4914303;29;20123;-83
2023/04/27 08:35:21;;;;;;;9.70;3.38;;;10.80;99.90;;;;;;4979109;28;20133;-82
2023/04/27 08:37:53;;;;;;;8.82;3.30;;;9.10;99.90;;;;;;4992560;28;20038;-83
2023/04/27 08:40:25;;;;;;;9.30;3.05;;;10.40;99.90;;;;;;4975637;28;20046;-83
2023/04/27 08:43:02;;;;;;;8.95;3.50;;;11.20;99.90;;;;;;4990918;28;20541;-83
2023/04/27 08:45:27;;;;;;;8.30;3.40;;;10.30;99.90;;;;;;4986500;28;20089;-82
2023/04/27 08:47:53;;;;;;;8.38;3.35;;;11.00;99.90;;;;;;4981606;28;20435;-82
2023/04/27 08:50:23;;;;;;;11.20;3.42;;;9.60;99.90;;;;;;4977483;28;20453;-83
2023/04/27 08:52:49;;;;;;;9.35;3.33;;;10.80;99.90;;;;;;5000390;28;20060;-82
2023/04/27 08:59:11;;;;;;;9.73;3.30;;;11.00;99.90;;;;;;4989669;28;20061;-83
2023/04/27 09:01:49;;;;;;;10.05;3.20;;;11.00;99.90;;;;;;5005799;28;20116;-82
2023/04/27 09:04:45;;;;;;;8.25;3.10;;;11.70;99.90;;;;;;5010542;28;20042;-83
2023/04/27 09:07:24;;;;;;;9.05;3.00;;;11.20;99.90;;;;;;4990708;28;20077;-82
2023/04/27 09:10:05;;;;;;;9.93;3.47;;;10.40;99.90;;;;;;4975765;28;20577;-83
2023/04/27 09:12:31;;;;;;;9.23;3.13;;;10.50;99.90;;;;;;5006796;28;20050;-82
2023/04/27 09:15:05;;;;;;;8.25;2.83;;;11.50;99.90;;;;;;5002411;28;20030;-82
2023/04/27 09:17:32;;;;;;;8.95;3.10;;;10.70;99.90;;;;;;4982830;28;20043;-82
2023/04/27 09:20:27;;;;;;;10.77;3.42;;;10.90;99.90;;;;;;4983695;28;20490;-82
2023/04/27 09:23:02;;;;;;;8.95;2.92;;;10.90;99.90;;;;;;4984308;28;20050;-83
2023/04/27 09:25:40;;;;;;;7.10;2.80;;;12.40;99.90;;;;;;4979678;28;20400;-83
2023/04/27 09:28:07;;;;;;;10.52;3.40;;;11.10;99.90;;;;;;4985576;28;20517;-83
2023/04/27 09:30:52;;;;;;;8.90;3.10;;;12.60;99.90;;;;;;4982685;28;20401;-83
2023/04/27 09:33:27;;;;;;;9.82;3.88;;;11.10;99.30;;;;;;4996400;28;20390;-82
2023/04/27 09:36:22;;;;;;;9.82;3.40;;;12.60;99.90;;;;;;4988906;28;20050;-83
2023/04/27 09:38:49;;;;;;;9.63;3.20;;;12.00;99.90;;;;;;4980686;28;20034;-83
2023/04/27 09:41:27;;;;;;;8.88;3.60;;;10.70;99.50;;;;;;4982611;28;20239;-82
2023/04/27 09:44:02;;;;;;;10.02;3.40;;;12.00;99.40;;;;;;5005267;28;20389;-83
2023/04/27 09:46:44;;;;;;;8.02;3.20;;;11.20;99.90;;;;;;4998492;28;20042;-83
2023/04/27 09:49:23;;;;;;;8.23;3.63;;;11.10;99.90;;;;;;5004605;28;20042;-82
2023/04/27 09:51:49;;;;;;;9.88;3.78;;;11.60;99.90;;;;;;5007522;28;20125;-83
2023/04/27 09:54:24;;;;;;;10.50;3.53;;;12.70;99.90;;;;;;4982453;28;20121;-83
2023/04/27 09:57:29;;;;;;;11.65;3.33;;;12.50;99.90;;;;;;4995130;28;20050;-84
2023/04/27 10:00:19;;;;;;;14.20;7.22;;;11.00;99.00;;;;;;4981767;28;20053;-84
2023/04/27 10:03:24;;;;;;;15.35;6.22;;;11.60;97.00;;;;;;5000729;28;20053;-84
2023/04/27 10:06:08;;;;;;;9.57;4.38;;;11.00;98.90;;;;;;4980505;28;20049;-83
2023/04/27 10:13:19;;;;;;;10.80;4.43;;;11.80;98.40;;;;;;4965708;23;20156;-83
2023/04/27 10:15:45;;;;;;;11.57;4.00;;;11.40;99.90;;;;;;4946369;28;20055;-84
2023/04/27 10:18:30;;;;;;;9.00;4.00;;;12.20;97.90;;;;;;4955042;29;20186;-84
2023/04/27 10:21:21;;;;;;;10.88;4.25;;;13.70;98.80;;;;;;4965750;23;20451;-84
2023/04/27 10:24:07;;;;;;;11.30;4.10;;;12.60;99.20;;;;;;4976739;28;20209;-84
2023/04/27 10:26:48;;;;;;;9.90;3.95;;;12.20;98.40;;;;;;4974706;28;20566;-84
2023/04/27 10:29:50;;;;;;;;;;;;;;;;;;;;;
2023/04/27 10:33:20;;;;;;;9.85;4.00;;;12.40;99.00;;;;;;4975065;28;20398;-83
2023/04/27 10:39:21;;;;;;;8.70;4.32;;;12.20;99.90;;;;;;4997365;28;20507;-84
2023/04/27 10:42:48;;;;;;;10.98;4.20;;;12.90;99.90;;;;;;4981831;28;20058;-85
2023/04/27 10:45:47;;;;;;;9.98;4.20;;;12.50;99.90;;;;;;4975009;28;20046;-86
2023/04/27 10:51:01;;;;;;;10.85;4.60;;;12.20;99.80;;;;;;5011619;23;20063;-85
2023/04/27 10:53:51;;;;;;;9.75;3.92;;;13.70;99.90;;;;;;4957907;28;20031;-83
2023/04/27 10:56:42;;;;;;;8.35;4.00;;;12.90;97.20;;;;;;4961389;28;20062;-83
2023/04/27 10:59:22;;;;;;;9.88;4.63;;;12.90;97.90;;;;;;4945023;28;20535;-84
2023/04/27 11:01:50;;;;;;;11.07;4.40;;;13.50;96.50;;;;;;4946445;28;20075;-83
2023/04/27 11:05:01;;;;;;;10.50;4.20;;;13.90;99.90;;;;;;4963798;28;20039;-84
2023/04/27 11:07:51;;;;;;;9.07;4.03;;;13.40;97.70;;;;;;4857593;29;20175;-88
2023/04/27 11:10:42;;;;;;;8.43;3.97;;;12.80;99.90;;;;;;4857809;29;20082;-83
2023/04/27 11:13:21;;;;;;;9.90;4.40;;;13.60;97.50;;;;;;4859356;29;20045;-85
2023/04/27 11:19:24;;;;;;;9.57;4.32;;;14.50;95.10;;;;;;4986901;23;20482;-85
2023/04/27 11:22:29;;;;;;;;;;;;;;;;;;;;;
2023/04/27 11:28:23;;;;;;;10.90;4.85;;;14.90;94.30;;;;;;4935969;29;20047;-85
2023/04/27 11:31:21;;;;;;;9.88;4.15;;;14.70;97.50;;;;;;4946280;29;20427;-85
2023/04/27 11:36:22;;;;;;;9.75;4.50;;;14.10;99.90;;;;;;4980937;28;20051;-85
2023/04/27 11:38:48;;;;;;;10.32;4.53;;;15.30;99.90;;;;;;4995928;23;20052;-84
2023/04/27 11:44:27;;;;;;;10.02;4.43;;;15.10;96.10;;;;;;4974272;28;20058;-85
2023/04/27 11:47:20;;;;;;;9.55;4.53;;;14.40;98.80;;;;;;4974494;28;20042;-85
2023/04/27 11:50:11;;;;;;;10.70;4.45;;;14.50;95.40;;;;;;4973578;28;20082;-85
2023/04/27 11:52:48;;;;;;;10.63;4.53;;;14.20;97.60;;;;;;4991595;28;20486;-85
2023/04/27 11:55:24;;;;;;;10.57;4.55;;;15.10;98.40;;;;;;4997498;23;20057;-84
2023/04/27 11:58:13;;;;;;;9.93;4.38;;;14.60;97.30;;;;;;4969572;28;20050;-85
2023/04/27 12:00:50;;;;;;;10.05;4.78;;;13.70;97.90;;;;;;4967009;28;20050;-84
2023/04/27 12:03:21;;;;;;;10.23;4.40;;;13.60;97.50;;;;;;4974732;28;20045;-85
2023/04/27 12:05:51;;;;;;;10.77;4.80;;;13.60;97.80;;;;;;4962112;28;20057;-85
2023/04/27 12:08:20;;;;;;;9.35;4.40;;;13.70;99.10;;;;;;4974040;23;20535;-84
2023/04/27 12:10:49;;;;;;;9.52;4.18;;;13.70;99.20;;;;;;4956284;28;20110;-85
2023/04/27 12:17:08;;;;;;;11.77;4.88;;;13.60;96.90;;;;;;4966300;28;20059;-84
2023/04/27 12:19:39;;;;;;;11.90;4.60;;;14.70;99.20;;;;;;4958983;28;20151;-84
2023/04/27 12:22:13;;;;;;;10.43;4.25;;;14.50;99.50;;;;;;4974989;28;20046;-84
2023/04/27 12:24:45;;;;;;;9.45;4.53;;;12.70;98.60;;;;;;4973007;28;20118;-84
2023/04/27 12:27:16;;;;;;;9.55;4.38;;;14.10;98.40;;;;;;4951140;28;20051;-83
2023/04/27 12:29:53;;;;;;;9.82;4.43;;;12.70;99.70;;;;;;4968714;28;20444;-85
2023/04/27 12:32:26;;;;;;;9.95;4.20;;;14.00;98.80;;;;;;4899497;28;20051;-84
2023/04/27 12:36:02;;;;;;;9.60;4.60;;;13.50;99.70;;;;;;5001159;23;20038;-85
2023/04/27 12:38:28;;;;;;;11.40;4.60;;;13.10;96.70;;;;;;4983812;28;20498;-84
2023/04/27 12:41:11;;;;;;;9.88;4.50;;;14.70;99.90;;;;;;4988010;28;20045;-83
2023/04/27 12:43:47;;;;;;;;;;;13.80;99.40;;;;;;4988597;28;20490;-83
2023/04/27 12:46:19;;;;;;;9.70;4.20;;;13.70;94.80;;;;;;4989990;28;19921;-84
2023/04/27 12:49:00;;;;;;;11.70;4.55;;;14.10;98.90;;;;;;4992586;28;20085;-84
2023/04/27 12:51:50;;;;;;;11.30;4.13;;;14.20;96.40;;;;;;4994592;28;20069;-84
2023/04/27 12:54:16;;;;;;;9.20;3.83;;;14.60;97.60;;;;;;5012574;28;20104;-84
2023/04/27 12:56:53;;;;;;;9.93;4.20;;;15.10;99.10;;;;;;5012226;28;20441;-84
2023/04/27 12:59:19;;;;;;;12.70;4.05;;;15.20;95.00;;;;;;4994831;28;20046;-84
2023/04/27 13:01:54;;;;;;;9.10;3.67;;;13.40;98.20;;;;;;4994940;28;20038;-84
2023/04/27 13:04:34;;;;;;;9.23;3.83;;;15.20;97.20;;;;;;4989550;28;20049;-84
2023/04/27 13:07:00;;;;;;;8.60;3.85;;;14.40;95.70;;;;;;4987227;28;20047;-83
2023/04/27 13:09:42;;;;;;;8.43;3.97;;;14.30;98.40;;;;;;5002456;28;20109;-83
2023/04/27 13:12:17;;;;;;;10.40;4.78;;;14.10;97.30;;;;;;4991403;28;20042;-84
2023/04/27 13:14:57;;;;;;;9.20;4.28;;;15.10;96.10;;;;;;4992928;28;20046;-84
2023/04/27 13:17:23;;;;;;;10.15;4.07;;;14.80;96.50;;;;;;5000718;28;20093;-84
2023/04/27 13:20:01;;;;;;;10.15;4.10;;;15.10;98.30;;;;;;4998161;28;20446;-84
2023/04/27 13:22:27;;;;;;;9.48;3.90;;;14.40;96.50;;;;;;4986441;28;20112;-84
2023/04/27 13:25:00;;;;;;;9.15;4.28;;;14.30;97.70;;;;;;4992892;28;20502;-84
2023/04/27 13:27:44;;;;;;;8.27;4.00;;;13.70;95.40;;;;;;4988726;28;20482;-84
2023/04/27 13:30:10;;;;;;;8.93;4.18;;;13.90;92.70;;;;;;5006480;28;20505;-84
2023/04/27 13:32:55;;;;;;;9.93;4.18;;;13.80;97.20;;;;;;5004362;28;20038;-85
2023/04/27 13:35:40;;;;;;;11.07;4.75;;;13.90;94.80;;;;;;4987804;28;20149;-84
2023/04/27 13:38:26;;;;;;;9.05;4.20;;;14.00;96.10;;;;;;5004345;28;20042;-84
2023/04/27 13:40:52;;;;;;;9.38;4.28;;;14.10;97.70;;;;;;5009107;28;20088;-84
2023/04/27 13:43:39;;;;;;;10.35;4.40;;;14.20;97.70;;;;;;4999666;28;20050;-84
2023/04/27 13:46:12;;;;;;;10.52;4.53;;;14.70;97.20;;;;;;5015281;28;20086;-84